createdAt,value
2019-02-18T00:00:21.095Z,3.20
2019-02-18T00:02:49.603Z,3.20
2019-02-18T00:05:18.065Z,3.16
2019-02-18T00:07:46.493Z,3.18
2019-02-18T00:10:14.930Z,3.14
2019-02-18T00:12:43.456Z,3.13
2019-02-18T00:15:11.886Z,3.10
2019-02-18T00:17:40.424Z,3.05
2019-02-18T00:20:08.902Z,3.04
2019-02-18T00:22:37.364Z,3.08
2019-02-18T00:25:06.046Z,3.07
2019-02-18T00:27:34.512Z,3.02
2019-02-18T00:30:03.318Z,2.99
2019-02-18T00:32:31.740Z,2.97
2019-02-18T00:35:00.290Z,2.99
2019-02-18T00:37:28.748Z,2.93
2019-02-18T00:39:57.162Z,2.89
2019-02-18T00:42:25.619Z,2.89
2019-02-18T00:44:54.041Z,2.90
2019-02-18T00:47:22.499Z,2.85
2019-02-18T00:49:50.999Z,2.77
2019-02-18T00:52:19.446Z,2.74
2019-02-18T00:54:47.891Z,2.64
2019-02-18T00:57:16.325Z,2.62
2019-02-18T00:59:44.753Z,2.66
2019-02-18T01:02:13.734Z,2.67
2019-02-18T01:04:42.229Z,2.64
2019-02-18T01:07:10.789Z,2.65
2019-02-18T01:09:39.233Z,2.62
2019-02-18T01:12:07.678Z,2.58
2019-02-18T01:14:36.121Z,2.55
2019-02-18T01:17:04.576Z,2.47
2019-02-18T01:19:33.005Z,2.51
2019-02-18T01:22:01.418Z,2.53
2019-02-18T01:24:29.882Z,2.48
2019-02-18T01:26:58.358Z,2.51
2019-02-18T01:29:26.791Z,2.38
2019-02-18T01:31:55.272Z,2.44
2019-02-18T01:34:23.692Z,2.43
2019-02-18T01:36:52.170Z,2.45
2019-02-18T01:39:20.643Z,2.44
2019-02-18T01:41:49.153Z,2.38
2019-02-18T01:44:17.643Z,2.36
2019-02-18T01:46:46.110Z,2.32
2019-02-18T01:49:14.549Z,2.30
2019-02-18T01:51:43.029Z,2.35
2019-02-18T01:54:11.520Z,2.32
2019-02-18T01:56:39.954Z,2.31
2019-02-18T01:59:08.489Z,2.31
2019-02-18T02:01:36.948Z,2.31
2019-02-18T02:04:05.394Z,2.24
2019-02-18T02:06:33.847Z,2.25
2019-02-18T02:09:02.332Z,2.21
2019-02-18T02:11:30.792Z,2.18
2019-02-18T02:13:59.196Z,2.14
2019-02-18T02:16:27.650Z,2.11
2019-02-18T02:18:56.162Z,2.14
2019-02-18T02:21:24.608Z,2.13
2019-02-18T02:23:53.065Z,2.03
2019-02-18T02:26:21.521Z,2.03
2019-02-18T02:28:49.973Z,1.97
2019-02-18T02:31:18.457Z,2.00
2019-02-18T02:33:46.938Z,1.99
2019-02-18T02:36:15.399Z,1.99
2019-02-18T02:38:43.841Z,1.99
2019-02-18T02:41:12.252Z,1.95
2019-02-18T02:43:40.715Z,1.91
2019-02-18T02:46:09.167Z,1.92
2019-02-18T02:48:37.612Z,1.96
2019-02-18T02:51:06.055Z,1.98
2019-02-18T02:53:34.495Z,1.96
2019-02-18T02:56:02.932Z,1.92
2019-02-18T02:58:31.426Z,1.90
2019-02-18T03:00:59.849Z,1.82
2019-02-18T03:03:28.297Z,1.78
2019-02-18T03:05:56.779Z,1.81
2019-02-18T03:08:25.293Z,1.83
2019-02-18T03:10:53.798Z,1.87
2019-02-18T03:13:22.253Z,1.89
2019-02-18T03:15:50.676Z,1.84
2019-02-18T03:18:19.141Z,1.86
2019-02-18T03:20:47.553Z,1.86
2019-02-18T03:23:16.015Z,1.87
2019-02-18T03:25:46.006Z,1.87
2019-02-18T03:28:36.965Z,1.86
2019-02-18T03:31:10.994Z,1.82
2019-02-18T03:33:48.192Z,1.82
2019-02-18T03:36:16.642Z,1.81
2019-02-18T03:38:45.095Z,1.77
2019-02-18T03:41:13.531Z,1.77
2019-02-18T03:43:42.037Z,1.79
2019-02-18T03:46:10.494Z,1.75
2019-02-18T03:48:38.971Z,1.74
2019-02-18T03:51:07.427Z,1.75
2019-02-18T03:53:35.864Z,1.63
2019-02-18T03:56:04.356Z,1.59
2019-02-18T03:58:32.797Z,1.59
2019-02-18T04:01:01.341Z,1.63
2019-02-18T04:03:29.765Z,1.59
2019-02-18T04:05:58.206Z,1.61
2019-02-18T04:08:26.647Z,1.59
2019-02-18T04:10:55.098Z,1.60
2019-02-18T04:13:23.494Z,1.62
2019-02-18T04:15:51.967Z,1.59
2019-02-18T04:18:20.411Z,1.59
2019-02-18T04:20:48.833Z,1.62
2019-02-18T04:23:17.393Z,1.61
2019-02-18T04:25:45.818Z,1.58
2019-02-18T04:28:14.248Z,1.55
2019-02-18T04:30:42.735Z,1.58
2019-02-18T04:33:11.136Z,1.57
2019-02-18T04:35:39.559Z,1.55
2019-02-18T04:38:08.022Z,1.52
2019-02-18T04:40:36.504Z,1.49
2019-02-18T04:43:05.050Z,1.51
2019-02-18T04:45:33.564Z,1.48
2019-02-18T04:48:01.964Z,1.45
2019-02-18T04:50:30.755Z,1.43
2019-02-18T04:52:59.177Z,1.46
2019-02-18T04:55:27.639Z,1.44
2019-02-18T04:57:56.122Z,1.46
2019-02-18T05:00:24.646Z,1.45
2019-02-18T05:02:53.090Z,1.41
2019-02-18T05:05:21.621Z,1.42
2019-02-18T05:07:50.076Z,1.44
2019-02-18T05:10:18.531Z,1.38
2019-02-18T05:12:46.958Z,1.38
2019-02-18T05:15:15.384Z,1.37
2019-02-18T05:17:43.835Z,1.34
2019-02-18T05:20:12.402Z,1.31
2019-02-18T05:22:40.855Z,1.28
2019-02-18T05:25:12.823Z,1.27
2019-02-18T05:27:41.093Z,1.26
2019-02-18T05:30:11.663Z,1.24
2019-02-18T05:32:40.087Z,1.25
2019-02-18T05:35:08.694Z,1.26
2019-02-18T05:37:37.155Z,1.25
2019-02-18T05:40:08.003Z,1.25
2019-02-18T05:42:36.470Z,1.28
2019-02-18T05:45:07.450Z,1.28
2019-02-18T05:47:35.877Z,1.27
2019-02-18T05:50:05.181Z,1.28
2019-02-18T05:52:33.604Z,1.28
2019-02-18T05:55:02.058Z,1.26
2019-02-18T05:57:30.482Z,1.27
2019-02-18T05:59:58.992Z,1.28
2019-02-18T06:02:27.456Z,1.27
2019-02-18T06:04:55.885Z,1.27
2019-02-18T06:07:24.312Z,1.31
2019-02-18T06:09:52.759Z,1.28
2019-02-18T06:12:21.199Z,1.26
2019-02-18T06:14:49.625Z,1.25
2019-02-18T06:17:18.066Z,1.23
2019-02-18T06:19:46.507Z,1.26
2019-02-18T06:22:14.952Z,1.28
2019-02-18T06:24:43.403Z,1.27
2019-02-18T06:27:11.861Z,1.30
2019-02-18T06:29:40.267Z,1.31
2019-02-18T06:32:08.722Z,1.32
2019-02-18T06:34:37.162Z,1.32
2019-02-18T06:37:05.605Z,1.35
2019-02-18T06:39:41.255Z,1.32
2019-02-18T06:42:04.198Z,1.33
2019-02-18T06:44:34.265Z,1.36
2019-02-18T06:47:04.370Z,1.40
2019-02-18T06:49:32.779Z,1.41
2019-02-18T06:52:01.251Z,1.45
2019-02-18T06:54:29.697Z,1.48
2019-02-18T06:57:11.986Z,1.50
2019-02-18T06:59:42.066Z,1.52
2019-02-18T07:02:12.124Z,1.57
2019-02-18T07:04:45.646Z,1.62
2019-02-18T07:07:15.801Z,1.63
2019-02-18T07:10:01.171Z,1.75
2019-02-18T07:12:31.314Z,1.83
2019-02-18T07:14:59.758Z,2.00
2019-02-18T07:17:28.241Z,2.16
2019-02-18T07:19:56.719Z,2.32
2019-02-18T07:22:25.171Z,2.75
2019-02-18T07:24:53.591Z,3.10
2019-02-18T07:27:22.019Z,3.53
2019-02-18T07:29:50.475Z,3.82
2019-02-18T07:32:18.934Z,4.19
2019-02-18T07:34:47.370Z,4.50
2019-02-18T07:37:15.799Z,4.78
2019-02-18T07:39:44.226Z,4.88
2019-02-18T07:42:12.723Z,5.09
2019-02-18T07:44:41.145Z,5.30
2019-02-18T07:47:09.594Z,5.54
2019-02-18T07:49:38.024Z,5.92
2019-02-18T07:52:06.536Z,6.49
2019-02-18T07:54:34.991Z,6.89
2019-02-18T07:57:03.453Z,7.22
2019-02-18T07:59:31.906Z,7.46
2019-02-18T08:02:00.347Z,7.11
2019-02-18T08:04:28.784Z,6.62
2019-02-18T08:06:57.241Z,6.78
2019-02-18T08:09:25.766Z,7.19
2019-02-18T08:11:54.215Z,7.74
2019-02-18T08:14:22.740Z,8.15
2019-02-18T08:16:51.176Z,8.48
2019-02-18T08:19:20.382Z,8.88
2019-02-18T08:21:48.799Z,9.35
2019-02-18T08:24:17.282Z,9.51
2019-02-18T08:26:45.761Z,9.75
2019-02-18T08:29:14.283Z,10.35
2019-02-18T08:31:42.735Z,10.72
2019-02-18T08:34:11.223Z,11.01
2019-02-18T08:36:39.676Z,11.48
2019-02-18T08:39:08.163Z,11.64
2019-02-18T08:41:36.611Z,12.03
2019-02-18T08:44:05.132Z,12.26
2019-02-18T08:46:33.645Z,12.26
2019-02-18T08:49:02.052Z,12.92
2019-02-18T08:51:30.537Z,13.18
2019-02-18T08:53:58.970Z,13.74
2019-02-18T08:56:27.426Z,14.04
2019-02-18T08:58:55.953Z,14.24
2019-02-18T09:01:24.356Z,13.60
2019-02-18T09:03:52.827Z,13.31
2019-02-18T09:06:21.280Z,13.06
2019-02-18T09:08:49.736Z,12.72
2019-02-18T09:11:18.179Z,12.63
2019-02-18T09:13:46.621Z,12.56
2019-02-18T09:16:15.077Z,12.68
2019-02-18T09:18:43.518Z,12.93
2019-02-18T09:21:12.024Z,13.59
2019-02-18T09:23:44.800Z,14.24
2019-02-18T09:26:14.889Z,15.36
2019-02-18T09:28:43.351Z,16.08
2019-02-18T09:31:11.793Z,15.77
2019-02-18T09:33:40.263Z,16.24
2019-02-18T09:36:08.684Z,15.71
2019-02-18T09:38:37.180Z,16.29
2019-02-18T09:41:05.612Z,16.44
2019-02-18T09:43:34.032Z,16.23
2019-02-18T09:46:02.563Z,16.87
2019-02-18T09:48:30.983Z,16.41
2019-02-18T09:51:00.259Z,17.17
2019-02-18T09:53:28.797Z,18.00
2019-02-18T09:55:57.222Z,18.90
2019-02-18T09:58:25.685Z,19.44
2019-02-18T10:00:54.101Z,19.31
2019-02-18T10:03:31.618Z,18.60
2019-02-18T10:05:52.720Z,18.38
2019-02-18T10:08:21.151Z,18.13
2019-02-18T10:10:55.770Z,17.99
2019-02-18T10:13:19.810Z,17.07
2019-02-18T10:15:48.295Z,16.05
2019-02-18T10:18:16.773Z,15.81
2019-02-18T10:20:45.196Z,16.12
2019-02-18T10:23:13.616Z,16.15
2019-02-18T10:25:42.068Z,15.89
2019-02-18T10:28:10.486Z,15.32
2019-02-18T10:30:39.008Z,15.07
2019-02-18T10:33:07.502Z,14.66
2019-02-18T10:35:36.004Z,14.51
2019-02-18T10:38:04.485Z,14.06
2019-02-18T10:40:32.887Z,14.10
2019-02-18T10:43:01.341Z,13.96
2019-02-18T10:45:29.787Z,13.92
2019-02-18T10:47:58.215Z,14.06
2019-02-18T10:50:26.674Z,14.15
2019-02-18T10:52:55.146Z,14.06
2019-02-18T10:55:23.652Z,14.07
2019-02-18T10:57:52.120Z,14.01
2019-02-18T11:00:20.546Z,14.09
2019-02-18T11:02:49.058Z,13.95
2019-02-18T11:05:17.511Z,14.05
2019-02-18T11:07:45.941Z,14.01
2019-02-18T11:10:15.950Z,14.07
2019-02-18T11:12:44.465Z,14.12
2019-02-18T11:15:14.804Z,14.17
2019-02-18T11:17:43.731Z,14.17
2019-02-18T11:20:13.372Z,14.12
2019-02-18T11:22:41.785Z,14.19
2019-02-18T11:25:15.460Z,14.23
2019-02-18T11:27:43.932Z,14.20
2019-02-18T11:30:16.991Z,14.34
2019-02-18T11:32:45.412Z,14.39
2019-02-18T11:35:13.953Z,14.43
2019-02-18T11:37:42.409Z,14.58
2019-02-18T11:40:16.071Z,14.66
2019-02-18T11:42:44.516Z,14.68
2019-02-18T11:45:15.265Z,14.80
2019-02-18T11:47:43.869Z,14.77
2019-02-18T11:50:14.515Z,14.85
2019-02-18T11:52:42.934Z,14.78
2019-02-18T11:55:15.176Z,14.83
2019-02-18T11:57:44.140Z,14.75
2019-02-18T12:00:16.934Z,14.80
2019-02-18T12:02:45.439Z,14.80
2019-02-18T12:05:14.136Z,14.80
2019-02-18T12:07:42.671Z,14.83
2019-02-18T12:10:14.561Z,14.76
2019-02-18T12:12:43.278Z,14.79
2019-02-18T12:15:14.099Z,14.82
2019-02-18T12:17:42.534Z,14.95
2019-02-18T12:20:17.351Z,14.90
2019-02-18T12:22:45.821Z,14.85
2019-02-18T12:25:14.230Z,14.81
2019-02-18T12:27:43.066Z,14.78
2019-02-18T12:30:18.705Z,14.75
2019-02-18T12:32:47.121Z,14.65
2019-02-18T12:35:15.643Z,14.64
2019-02-18T12:37:44.073Z,14.71
2019-02-18T12:40:14.457Z,14.81
2019-02-18T12:42:42.997Z,14.61
2019-02-18T12:45:13.308Z,14.68
2019-02-18T12:47:41.922Z,14.77
2019-02-18T12:50:11.900Z,14.80
2019-02-18T12:52:40.389Z,14.98
2019-02-18T12:55:10.548Z,14.99
2019-02-18T12:57:39.648Z,14.98
2019-02-18T13:00:15.807Z,14.99
2019-02-18T13:02:45.268Z,15.06
2019-02-18T13:05:14.193Z,15.17
2019-02-18T13:07:42.695Z,15.05
2019-02-18T13:10:12.029Z,15.02
2019-02-18T13:12:41.098Z,14.97
2019-02-18T13:15:14.721Z,14.94
2019-02-18T13:17:43.172Z,15.01
2019-02-18T13:20:11.649Z,15.03
2019-02-18T13:22:40.226Z,15.15
2019-02-18T13:25:10.081Z,15.12
2019-02-18T13:27:38.541Z,15.15
2019-02-18T13:30:12.732Z,15.21
2019-02-18T13:32:41.150Z,15.18
2019-02-18T13:35:09.673Z,15.21
2019-02-18T13:37:38.151Z,15.12
2019-02-18T13:40:07.716Z,15.09
2019-02-18T13:42:36.208Z,15.07
2019-02-18T13:45:07.554Z,15.18
2019-02-18T13:47:36.865Z,15.15
2019-02-18T13:50:11.065Z,15.13
2019-02-18T13:52:39.552Z,15.15
2019-02-18T13:55:18.883Z,15.18
2019-02-18T13:57:47.394Z,15.21
2019-02-18T14:00:22.718Z,15.03
2019-02-18T14:02:51.607Z,14.93
2019-02-18T14:05:21.679Z,14.98
2019-02-18T14:07:50.205Z,14.82
2019-02-18T14:10:19.989Z,14.97
2019-02-18T14:12:48.550Z,14.98
2019-02-18T14:15:17.556Z,14.99
2019-02-18T14:17:46.077Z,14.98
2019-02-18T14:20:16.027Z,14.89
2019-02-18T14:22:44.471Z,14.91
2019-02-18T14:25:14.829Z,14.70
2019-02-18T14:27:43.306Z,14.73
2019-02-18T14:30:14.694Z,14.72
2019-02-18T14:32:43.341Z,14.79
2019-02-18T14:35:12.039Z,14.66
2019-02-18T14:37:40.484Z,14.68
2019-02-18T14:40:11.572Z,14.69
2019-02-18T14:42:40.153Z,14.60
2019-02-18T14:45:09.540Z,14.64
2019-02-18T14:47:38.087Z,14.58
2019-02-18T14:50:08.824Z,14.66
2019-02-18T14:52:37.321Z,14.76
2019-02-18T14:55:08.582Z,14.73
2019-02-18T14:57:37.170Z,14.55
2019-02-18T15:00:15.913Z,14.75
2019-02-18T15:02:44.352Z,14.78
2019-02-18T15:05:12.806Z,14.82
2019-02-18T15:07:41.675Z,14.87
2019-02-18T15:10:11.081Z,14.80
2019-02-18T15:12:39.567Z,14.90
2019-02-18T15:15:08.220Z,14.81
2019-02-18T15:17:36.678Z,14.85
2019-02-18T15:20:07.263Z,14.88
2019-02-18T15:22:36.279Z,14.98
2019-02-18T15:25:07.269Z,14.96
2019-02-18T15:27:35.756Z,14.94
2019-02-18T15:30:08.231Z,14.83
2019-02-18T15:32:36.662Z,14.76
2019-02-18T15:35:05.469Z,14.71
2019-02-18T15:37:34.641Z,14.62
2019-02-18T15:40:04.215Z,14.64
2019-02-18T15:42:32.720Z,14.62
2019-02-18T15:45:01.252Z,14.59
2019-02-18T15:47:29.769Z,14.48
2019-02-18T15:49:58.299Z,14.45
2019-02-18T15:52:27.278Z,14.41
2019-02-18T15:54:55.762Z,14.27
2019-02-18T15:57:24.206Z,14.00
2019-02-18T15:59:52.631Z,13.95
2019-02-18T16:02:22.626Z,13.83
2019-02-18T16:04:51.085Z,13.76
2019-02-18T16:07:19.509Z,13.67
2019-02-18T16:09:47.954Z,13.55
2019-02-18T16:12:16.454Z,13.53
2019-02-18T16:14:44.907Z,13.50
2019-02-18T16:17:13.337Z,13.35
2019-02-18T16:19:41.824Z,13.14
2019-02-18T16:22:10.571Z,13.06
2019-02-18T16:24:39.540Z,13.07
2019-02-18T16:27:07.978Z,12.93
2019-02-18T16:29:36.443Z,12.81
2019-02-18T16:32:05.024Z,12.84
2019-02-18T16:34:33.469Z,12.81
2019-02-18T16:37:02.390Z,12.80
2019-02-18T16:39:30.832Z,12.76
2019-02-18T16:41:59.925Z,12.56
2019-02-18T16:44:28.339Z,12.59
2019-02-18T16:46:56.777Z,12.54
2019-02-18T16:49:25.216Z,12.47
2019-02-18T16:51:53.664Z,12.42
2019-02-18T16:54:22.218Z,12.30
2019-02-18T16:56:50.655Z,12.32
2019-02-18T16:59:19.058Z,12.21
2019-02-18T17:01:48.460Z,12.53
2019-02-18T17:04:16.876Z,12.29
2019-02-18T17:06:45.325Z,12.19
2019-02-18T17:09:13.911Z,11.98
2019-02-18T17:11:42.370Z,11.84
2019-02-18T17:14:10.883Z,11.55
2019-02-18T17:16:39.338Z,11.48
2019-02-18T17:19:07.817Z,11.42
2019-02-18T17:21:36.280Z,11.28
2019-02-18T17:24:05.591Z,11.30
2019-02-18T17:26:34.846Z,11.32
2019-02-18T17:29:03.380Z,11.24
2019-02-18T17:31:31.809Z,11.22
2019-02-18T17:34:00.267Z,11.14
2019-02-18T17:36:28.762Z,11.12
2019-02-18T17:38:57.143Z,11.02
2019-02-18T17:41:25.574Z,10.88
2019-02-18T17:43:54.778Z,10.69
2019-02-18T17:46:23.294Z,10.56
2019-02-18T17:48:51.732Z,10.43
2019-02-18T17:51:20.174Z,10.46
2019-02-18T17:53:48.633Z,10.47
2019-02-18T17:56:18.282Z,10.49
2019-02-18T17:58:47.259Z,10.37
2019-02-18T18:01:15.690Z,10.23
2019-02-18T18:03:44.191Z,10.25
2019-02-18T18:06:12.620Z,10.33
2019-02-18T18:08:41.121Z,10.39
2019-02-18T18:11:09.555Z,10.37
2019-02-18T18:13:38.028Z,10.35
2019-02-18T18:16:06.541Z,10.36
2019-02-18T18:18:34.964Z,10.23
2019-02-18T18:21:04.007Z,10.12
2019-02-18T18:23:32.468Z,10.21
2019-02-18T18:26:00.895Z,10.14
2019-02-18T18:28:29.348Z,10.02
2019-02-18T18:30:58.243Z,10.02
2019-02-18T18:33:26.717Z,9.54
2019-02-18T18:35:55.130Z,9.60
2019-02-18T18:38:23.558Z,9.49
2019-02-18T18:40:52.009Z,9.41
2019-02-18T18:43:20.422Z,9.38
2019-02-18T18:45:48.877Z,9.28
2019-02-18T18:48:17.327Z,9.29
2019-02-18T18:50:45.766Z,9.29
2019-02-18T18:53:14.262Z,9.25
2019-02-18T18:55:42.754Z,9.19
2019-02-18T18:58:11.173Z,9.24
2019-02-18T19:00:39.661Z,9.00
2019-02-18T19:03:08.147Z,8.76
2019-02-18T19:05:36.581Z,8.73
2019-02-18T19:08:05.097Z,8.72
2019-02-18T19:10:34.354Z,8.56
2019-02-18T19:13:02.785Z,8.50
2019-02-18T19:15:31.274Z,8.44
2019-02-18T19:17:59.747Z,8.48
2019-02-18T19:20:28.244Z,8.25
2019-02-18T19:22:56.676Z,8.19
2019-02-18T19:25:25.179Z,8.29
2019-02-18T19:27:53.603Z,8.33
2019-02-18T19:30:27.915Z,8.30
2019-02-18T19:32:56.324Z,8.21
2019-02-18T19:35:24.768Z,8.06
2019-02-18T19:37:54.191Z,8.07
2019-02-18T19:40:22.691Z,7.97
2019-02-18T19:42:51.160Z,8.01
2019-02-18T19:45:24.260Z,7.92
2019-02-18T19:47:52.863Z,7.97
2019-02-18T19:50:22.523Z,7.98
2019-02-18T19:52:50.915Z,7.91
2019-02-18T19:55:19.435Z,7.92
2019-02-18T19:57:47.887Z,7.92
2019-02-18T20:00:18.929Z,7.91
2019-02-18T20:02:47.478Z,7.92
2019-02-18T20:05:16.259Z,7.95
2019-02-18T20:07:44.667Z,7.97
2019-02-18T20:10:13.991Z,8.04
2019-02-18T20:12:42.443Z,8.12
2019-02-18T20:15:13.491Z,8.29
2019-02-18T20:17:41.955Z,8.33
2019-02-18T20:20:17.883Z,8.41
2019-02-18T20:22:46.414Z,8.49
2019-02-18T20:25:14.899Z,8.53
2019-02-18T20:27:43.382Z,8.88
2019-02-18T20:30:16.380Z,9.17
2019-02-18T20:32:44.851Z,9.29
2019-02-18T20:35:13.770Z,9.36
2019-02-18T20:37:42.285Z,9.44
2019-02-18T20:40:12.209Z,9.50
2019-02-18T20:42:41.084Z,9.50
2019-02-18T20:45:12.409Z,9.38
2019-02-18T20:47:40.837Z,9.38
2019-02-18T20:50:15.845Z,9.33
2019-02-18T20:52:44.247Z,9.31
2019-02-18T20:55:14.223Z,9.27
2019-02-18T20:57:42.793Z,9.20
2019-02-18T21:00:17.867Z,9.19
2019-02-18T21:02:46.755Z,9.16
2019-02-18T21:05:15.195Z,9.11
2019-02-18T21:07:43.781Z,9.11
2019-02-18T21:10:15.361Z,9.11
2019-02-18T21:12:43.826Z,9.18
2019-02-18T21:15:12.493Z,9.15
2019-02-18T21:17:40.922Z,9.12
2019-02-18T21:20:11.580Z,9.14
2019-02-18T21:22:40.008Z,9.05
2019-02-18T21:25:10.186Z,9.13
2019-02-18T21:27:39.564Z,9.12
2019-02-18T21:30:11.041Z,9.25
2019-02-18T21:32:40.028Z,9.21
2019-02-18T21:35:08.721Z,9.23
2019-02-18T21:37:37.228Z,9.15
2019-02-18T21:40:10.293Z,9.08
2019-02-18T21:42:38.798Z,9.05
2019-02-18T21:45:10.484Z,8.98
2019-02-18T21:47:39.378Z,9.02
2019-02-18T21:50:09.643Z,9.03
2019-02-18T21:52:38.462Z,9.01
2019-02-18T21:55:09.132Z,9.06
2019-02-18T21:57:37.562Z,9.06
2019-02-18T22:00:21.803Z,9.11
2019-02-18T22:02:50.732Z,9.13
2019-02-18T22:05:19.248Z,9.05
2019-02-18T22:07:48.042Z,9.04
2019-02-18T22:10:16.570Z,9.01
2019-02-18T22:12:45.069Z,9.01
2019-02-18T22:15:14.960Z,8.97
2019-02-18T22:17:43.799Z,8.91
2019-02-18T22:20:14.118Z,8.90
2019-02-18T22:22:42.609Z,8.86
2019-02-18T22:25:12.532Z,8.91
2019-02-18T22:27:41.013Z,8.97
2019-02-18T22:30:14.490Z,8.92
2019-02-18T22:32:42.973Z,8.94
2019-02-18T22:35:11.964Z,9.00
2019-02-18T22:37:40.419Z,9.06
2019-02-18T22:40:10.671Z,9.14
2019-02-18T22:42:39.105Z,9.06
2019-02-18T22:45:09.994Z,9.03
2019-02-18T22:47:38.400Z,9.04
2019-02-18T22:50:09.426Z,9.07
2019-02-18T22:52:37.830Z,9.10
2019-02-18T22:55:07.783Z,9.10
2019-02-18T22:57:36.228Z,9.11
2019-02-18T23:00:10.510Z,9.12
2019-02-18T23:02:40.525Z,9.16
2019-02-18T23:05:08.972Z,9.08
2019-02-18T23:07:37.393Z,8.97
2019-02-18T23:10:06.959Z,9.00
2019-02-18T23:12:35.377Z,8.91
2019-02-18T23:15:04.658Z,8.98
2019-02-18T23:17:33.082Z,9.04
2019-02-18T23:20:01.509Z,8.95
2019-02-18T23:22:30.523Z,9.03
2019-02-18T23:24:58.945Z,8.97
2019-02-18T23:27:27.371Z,9.19
2019-02-18T23:29:55.816Z,9.13
2019-02-18T23:32:24.245Z,9.11
2019-02-18T23:34:52.660Z,9.08
2019-02-18T23:37:21.184Z,9.01
2019-02-18T23:39:49.589Z,9.04
2019-02-18T23:42:18.033Z,9.02
2019-02-18T23:44:46.479Z,9.04
2019-02-18T23:47:14.880Z,8.96
2019-02-18T23:49:43.298Z,8.89
2019-02-18T23:52:11.753Z,8.88
2019-02-18T23:54:40.158Z,8.95
2019-02-18T23:57:08.582Z,8.95
2019-02-18T23:59:37.015Z,8.85
